sensor_id;sensor_type;location;lat;lon;timestamp;P1;durP1;ratioP1;P2;durP2;ratioP2
54823;SDS011;40724;53.196;5.980;2023-04-01T00:00:23;6.10;;;4.97;;
54823;SDS011;40724;53.196;5.980;2023-04-01T00:02:49;16.50;;;5.97;;
54823;SDS011;40724;53.196;5.980;2023-04-01T00:05:15;9.07;;;5.60;;
54823;SDS011;40724;53.196;5.980;2023-04-01T00:07:42;8.85;;;5.60;;
54823;SDS011;40724;53.196;5.980;2023-04-01T00:10:10;5.90;;;4.95;;
54823;SDS011;40724;53.196;5.980;2023-04-01T00:12:36;8.57;;;5.15;;
54823;SDS011;40724;53.196;5.980;2023-04-01T00:15:03;7.68;;;4.78;;
54823;SDS011;40724;53.196;5.980;2023-04-01T00:17:29;6.60;;;5.07;;
54823;SDS011;40724;53.196;5.980;2023-04-01T00:19:56;6.63;;;5.57;;
54823;SDS011;40724;53.196;5.980;2023-04-01T00:22:23;8.88;;;5.50;;
54823;SDS011;40724;53.196;5.980;2023-04-01T00:24:49;8.65;;;5.15;;
54823;SDS011;40724;53.196;5.980;2023-04-01T00:27:16;7.90;;;5.28;;
54823;SDS011;40724;53.196;5.980;2023-04-01T00:29:42;7.18;;;5.15;;
54823;SDS011;40724;53.196;5.980;2023-04-01T00:32:09;7.55;;;5.32;;
54823;SDS011;40724;53.196;5.980;2023-04-01T00:34:35;8.18;;;5.85;;
54823;SDS011;40724;53.196;5.980;2023-04-01T00:37:02;7.40;;;5.53;;
54823;SDS011;40724;53.196;5.980;2023-04-01T00:39:28;6.20;;;4.85;;
54823;SDS011;40724;53.196;5.980;2023-04-01T00:41:55;6.47;;;5.07;;
54823;SDS011;40724;53.196;5.980;2023-04-01T00:44:23;8.93;;;6.13;;
54823;SDS011;40724;53.196;5.980;2023-04-01T00:46:50;6.95;;;5.50;;
54823;SDS011;40724;53.196;5.980;2023-04-01T00:49:18;6.63;;;4.93;;
54823;SDS011;40724;53.196;5.980;2023-04-01T00:51:45;7.65;;;5.20;;
54823;SDS011;40724;53.196;5.980;2023-04-01T00:54:13;7.15;;;5.95;;
54823;SDS011;40724;53.196;5.980;2023-04-01T00:56:41;7.18;;;5.68;;
54823;SDS011;40724;53.196;5.980;2023-04-01T00:59:18;7.75;;;5.13;;
54823;SDS011;40724;53.196;5.980;2023-04-01T01:01:46;7.38;;;5.72;;
54823;SDS011;40724;53.196;5.980;2023-04-01T01:04:26;9.20;;;5.90;;
54823;SDS011;40724;53.196;5.980;2023-04-01T01:12:11;8.02;;;6.32;;
54823;SDS011;40724;53.196;5.980;2023-04-01T01:14:42;8.35;;;6.43;;
54823;SDS011;40724;53.196;5.980;2023-04-01T01:19:49;7.38;;;5.97;;
54823;SDS011;40724;53.196;5.980;2023-04-01T01:27:32;8.30;;;6.43;;
54823;SDS011;40724;53.196;5.980;2023-04-01T01:37:45;8.77;;;6.00;;
54823;SDS011;40724;53.196;5.980;2023-04-01T01:40:12;9.27;;;6.88;;
54823;SDS011;40724;53.196;5.980;2023-04-01T01:42:40;8.57;;;5.95;;
54823;SDS011;40724;53.196;5.980;2023-04-01T01:45:08;8.40;;;6.22;;
54823;SDS011;40724;53.196;5.980;2023-04-01T01:47:36;8.52;;;5.78;;
54823;SDS011;40724;53.196;5.980;2023-04-01T01:50:03;7.30;;;5.70;;
54823;SDS011;40724;53.196;5.980;2023-04-01T01:52:30;9.45;;;6.15;;
54823;SDS011;40724;53.196;5.980;2023-04-01T01:54:56;9.50;;;6.32;;
54823;SDS011;40724;53.196;5.980;2023-04-01T01:57:24;10.30;;;6.60;;
54823;SDS011;40724;53.196;5.980;2023-04-01T01:59:52;7.72;;;6.28;;
54823;SDS011;40724;53.196;5.980;2023-04-01T02:02:20;10.65;;;6.88;;
54823;SDS011;40724;53.196;5.980;2023-04-01T02:04:47;11.30;;;6.53;;
54823;SDS011;40724;53.196;5.980;2023-04-01T02:07:15;8.77;;;6.30;;
54823;SDS011;40724;53.196;5.980;2023-04-01T02:09:44;9.63;;;6.78;;
54823;SDS011;40724;53.196;5.980;2023-04-01T02:12:10;7.68;;;6.00;;
54823;SDS011;40724;53.196;5.980;2023-04-01T02:14:43;9.68;;;7.53;;
54823;SDS011;40724;53.196;5.980;2023-04-01T02:17:10;10.95;;;6.63;;
54823;SDS011;40724;53.196;5.980;2023-04-01T02:19:39;8.40;;;6.88;;
54823;SDS011;40724;53.196;5.980;2023-04-01T02:22:08;10.18;;;8.07;;
54823;SDS011;40724;53.196;5.980;2023-04-01T02:24:36;9.95;;;7.38;;
54823;SDS011;40724;53.196;5.980;2023-04-01T02:27:04;8.68;;;6.80;;
54823;SDS011;40724;53.196;5.980;2023-04-01T02:29:31;8.50;;;6.15;;
54823;SDS011;40724;53.196;5.980;2023-04-01T02:31:57;8.43;;;6.10;;
54823;SDS011;40724;53.196;5.980;2023-04-01T02:34:24;12.35;;;6.47;;
54823;SDS011;40724;53.196;5.980;2023-04-01T02:36:50;8.48;;;6.20;;
54823;SDS011;40724;53.196;5.980;2023-04-01T02:39:17;8.75;;;6.53;;
54823;SDS011;40724;53.196;5.980;2023-04-01T02:41:44;11.00;;;7.18;;
54823;SDS011;40724;53.196;5.980;2023-04-01T02:44:11;9.38;;;7.05;;
54823;SDS011;40724;53.196;5.980;2023-04-01T02:46:38;11.70;;;7.00;;
54823;SDS011;40724;53.196;5.980;2023-04-01T02:49:04;9.70;;;6.88;;
54823;SDS011;40724;53.196;5.980;2023-04-01T02:51:31;10.10;;;7.28;;
54823;SDS011;40724;53.196;5.980;2023-04-01T02:53:58;10.48;;;7.03;;
54823;SDS011;40724;53.196;5.980;2023-04-01T02:56:24;9.57;;;7.25;;
54823;SDS011;40724;53.196;5.980;2023-04-01T02:58:51;8.57;;;6.13;;
54823;SDS011;40724;53.196;5.980;2023-04-01T03:01:17;7.93;;;6.22;;
54823;SDS011;40724;53.196;5.980;2023-04-01T03:03:43;8.70;;;7.30;;
54823;SDS011;40724;53.196;5.980;2023-04-01T03:06:11;9.13;;;6.88;;
54823;SDS011;40724;53.196;5.980;2023-04-01T03:08:37;7.68;;;6.40;;
54823;SDS011;40724;53.196;5.980;2023-04-01T03:11:04;11.23;;;8.52;;
54823;SDS011;40724;53.196;5.980;2023-04-01T03:13:31;11.25;;;7.80;;
54823;SDS011;40724;53.196;5.980;2023-04-01T03:15:57;9.63;;;7.35;;
54823;SDS011;40724;53.196;5.980;2023-04-01T03:18:23;10.57;;;7.90;;
54823;SDS011;40724;53.196;5.980;2023-04-01T03:20:50;9.20;;;6.88;;
54823;SDS011;40724;53.196;5.980;2023-04-01T03:23:16;9.25;;;6.60;;
54823;SDS011;40724;53.196;5.980;2023-04-01T03:25:44;11.23;;;8.60;;
54823;SDS011;40724;53.196;5.980;2023-04-01T03:28:10;8.90;;;6.88;;
54823;SDS011;40724;53.196;5.980;2023-04-01T03:30:38;11.55;;;8.80;;
54823;SDS011;40724;53.196;5.980;2023-04-01T03:33:04;8.57;;;6.75;;
54823;SDS011;40724;53.196;5.980;2023-04-01T03:35:30;12.38;;;7.63;;
54823;SDS011;40724;53.196;5.980;2023-04-01T03:37:56;9.10;;;8.00;;
54823;SDS011;40724;53.196;5.980;2023-04-01T03:40:23;10.35;;;7.57;;
54823;SDS011;40724;53.196;5.980;2023-04-01T03:42:51;9.75;;;6.80;;
54823;SDS011;40724;53.196;5.980;2023-04-01T03:45:17;10.25;;;7.57;;
54823;SDS011;40724;53.196;5.980;2023-04-01T03:47:43;12.10;;;7.70;;
54823;SDS011;40724;53.196;5.980;2023-04-01T03:50:10;11.13;;;8.13;;
54823;SDS011;40724;53.196;5.980;2023-04-01T03:52:36;12.48;;;8.98;;
54823;SDS011;40724;53.196;5.980;2023-04-01T03:55:02;12.18;;;8.10;;
54823;SDS011;40724;53.196;5.980;2023-04-01T03:57:30;9.93;;;7.45;;
54823;SDS011;40724;53.196;5.980;2023-04-01T03:59:57;11.38;;;7.32;;
54823;SDS011;40724;53.196;5.980;2023-04-01T04:02:23;9.73;;;7.82;;
54823;SDS011;40724;53.196;5.980;2023-04-01T04:04:49;11.85;;;8.25;;
54823;SDS011;40724;53.196;5.980;2023-04-01T04:07:15;10.80;;;8.38;;
54823;SDS011;40724;53.196;5.980;2023-04-01T04:09:41;13.25;;;8.98;;
54823;SDS011;40724;53.196;5.980;2023-04-01T04:12:07;15.68;;;9.20;;
54823;SDS011;40724;53.196;5.980;2023-04-01T04:14:33;11.63;;;8.88;;
54823;SDS011;40724;53.196;5.980;2023-04-01T04:17:00;12.18;;;8.63;;
54823;SDS011;40724;53.196;5.980;2023-04-01T04:19:26;13.63;;;9.13;;
54823;SDS011;40724;53.196;5.980;2023-04-01T04:21:52;10.77;;;7.80;;
54823;SDS011;40724;53.196;5.980;2023-04-01T04:24:18;12.35;;;8.90;;
54823;SDS011;40724;53.196;5.980;2023-04-01T04:26:44;12.30;;;8.68;;
54823;SDS011;40724;53.196;5.980;2023-04-01T04:29:10;13.05;;;9.30;;
54823;SDS011;40724;53.196;5.980;2023-04-01T04:31:36;12.98;;;8.20;;
54823;SDS011;40724;53.196;5.980;2023-04-01T04:34:02;13.65;;;9.98;;
54823;SDS011;40724;53.196;5.980;2023-04-01T04:36:29;11.35;;;8.68;;
54823;SDS011;40724;53.196;5.980;2023-04-01T04:38:55;12.73;;;9.40;;
54823;SDS011;40724;53.196;5.980;2023-04-01T04:41:23;13.57;;;9.65;;
54823;SDS011;40724;53.196;5.980;2023-04-01T04:43:50;14.00;;;9.82;;
54823;SDS011;40724;53.196;5.980;2023-04-01T04:46:17;13.60;;;10.48;;
54823;SDS011;40724;53.196;5.980;2023-04-01T04:48:43;15.23;;;9.30;;
54823;SDS011;40724;53.196;5.980;2023-04-01T04:51:12;14.35;;;10.68;;
54823;SDS011;40724;53.196;5.980;2023-04-01T04:53:39;15.55;;;10.52;;
54823;SDS011;40724;53.196;5.980;2023-04-01T04:56:05;15.80;;;11.13;;
54823;SDS011;40724;53.196;5.980;2023-04-01T04:58:32;15.18;;;11.30;;
54823;SDS011;40724;53.196;5.980;2023-04-01T05:00:58;17.70;;;11.20;;
54823;SDS011;40724;53.196;5.980;2023-04-01T05:03:25;16.42;;;11.32;;
54823;SDS011;40724;53.196;5.980;2023-04-01T05:05:51;15.45;;;11.00;;
54823;SDS011;40724;53.196;5.980;2023-04-01T05:08:18;18.80;;;11.88;;
54823;SDS011;40724;53.196;5.980;2023-04-01T05:10:44;15.57;;;11.68;;
54823;SDS011;40724;53.196;5.980;2023-04-01T05:13:10;17.90;;;11.15;;
54823;SDS011;40724;53.196;5.980;2023-04-01T05:15:36;17.73;;;12.20;;
54823;SDS011;40724;53.196;5.980;2023-04-01T05:18:03;16.13;;;11.52;;
54823;SDS011;40724;53.196;5.980;2023-04-01T05:20:29;16.40;;;11.88;;
54823;SDS011;40724;53.196;5.980;2023-04-01T05:22:56;18.38;;;11.70;;
54823;SDS011;40724;53.196;5.980;2023-04-01T05:25:22;16.75;;;11.02;;
54823;SDS011;40724;53.196;5.980;2023-04-01T05:27:48;17.42;;;12.25;;
54823;SDS011;40724;53.196;5.980;2023-04-01T05:30:14;14.95;;;11.10;;
54823;SDS011;40724;53.196;5.980;2023-04-01T05:32:40;17.80;;;11.93;;
54823;SDS011;40724;53.196;5.980;2023-04-01T05:35:06;14.80;;;10.88;;
54823;SDS011;40724;53.196;5.980;2023-04-01T05:37:33;14.63;;;10.27;;
54823;SDS011;40724;53.196;5.980;2023-04-01T05:40:00;19.25;;;12.07;;
54823;SDS011;40724;53.196;5.980;2023-04-01T05:42:27;15.90;;;11.00;;
54823;SDS011;40724;53.196;5.980;2023-04-01T05:44:53;14.85;;;10.82;;
54823;SDS011;40724;53.196;5.980;2023-04-01T05:47:20;18.38;;;10.85;;
54823;SDS011;40724;53.196;5.980;2023-04-01T05:49:47;16.23;;;11.48;;
54823;SDS011;40724;53.196;5.980;2023-04-01T05:52:13;14.35;;;10.50;;
54823;SDS011;40724;53.196;5.980;2023-04-01T05:54:39;16.60;;;12.23;;
54823;SDS011;40724;53.196;5.980;2023-04-01T05:57:06;13.80;;;10.02;;
54823;SDS011;40724;53.196;5.980;2023-04-01T05:59:32;17.63;;;11.40;;
54823;SDS011;40724;53.196;5.980;2023-04-01T06:02:00;14.48;;;10.27;;
54823;SDS011;40724;53.196;5.980;2023-04-01T06:04:26;17.48;;;11.02;;
54823;SDS011;40724;53.196;5.980;2023-04-01T06:06:55;14.18;;;10.23;;
54823;SDS011;40724;53.196;5.980;2023-04-01T06:09:27;14.40;;;10.38;;
54823;SDS011;40724;53.196;5.980;2023-04-01T06:32:54;14.95;;;10.10;;
54823;SDS011;40724;53.196;5.980;2023-04-01T06:35:40;15.35;;;10.48;;
54823;SDS011;40724;53.196;5.980;2023-04-01T06:46:18;15.23;;;10.57;;
54823;SDS011;40724;53.196;5.980;2023-04-01T06:54:12;14.53;;;9.23;;
54823;SDS011;40724;53.196;5.980;2023-04-01T06:56:41;13.05;;;9.80;;
54823;SDS011;40724;53.196;5.980;2023-04-01T06:59:18;14.63;;;10.13;;
54823;SDS011;40724;53.196;5.980;2023-04-01T07:01:45;13.80;;;9.05;;
54823;SDS011;40724;53.196;5.980;2023-04-01T07:09:57;13.77;;;9.82;;
54823;SDS011;40724;53.196;5.980;2023-04-01T07:12:49;13.60;;;9.30;;
54823;SDS011;40724;53.196;5.980;2023-04-01T07:14:50;15.48;;;11.25;;
54823;SDS011;40724;53.196;5.980;2023-04-01T07:17:19;13.13;;;9.40;;
54823;SDS011;40724;53.196;5.980;2023-04-01T07:24:42;16.65;;;10.63;;
54823;SDS011;40724;53.196;5.980;2023-04-01T07:27:10;16.55;;;11.55;;
54823;SDS011;40724;53.196;5.980;2023-04-01T07:29:36;16.42;;;12.38;;
54823;SDS011;40724;53.196;5.980;2023-04-01T07:32:11;15.10;;;11.20;;
54823;SDS011;40724;53.196;5.980;2023-04-01T07:39:46;17.30;;;11.52;;
54823;SDS011;40724;53.196;5.980;2023-04-01T07:57:55;18.85;;;12.88;;
54823;SDS011;40724;53.196;5.980;2023-04-01T08:00:24;19.55;;;12.82;;
54823;SDS011;40724;53.196;5.980;2023-04-01T08:13:40;21.80;;;13.93;;
54823;SDS011;40724;53.196;5.980;2023-04-01T08:21:20;18.95;;;12.73;;
54823;SDS011;40724;53.196;5.980;2023-04-01T08:23:48;21.75;;;12.75;;
54823;SDS011;40724;53.196;5.980;2023-04-01T08:28:43;16.55;;;10.35;;
54823;SDS011;40724;53.196;5.980;2023-04-01T08:31:12;17.13;;;9.73;;
54823;SDS011;40724;53.196;5.980;2023-04-01T08:33:39;14.68;;;9.52;;
54823;SDS011;40724;53.196;5.980;2023-04-01T08:36:15;17.73;;;8.68;;
54823;SDS011;40724;53.196;5.980;2023-04-01T08:38:55;16.67;;;8.07;;
54823;SDS011;40724;53.196;5.980;2023-04-01T08:41:29;16.27;;;8.77;;
54823;SDS011;40724;53.196;5.980;2023-04-01T08:44:04;12.10;;;7.35;;
54823;SDS011;40724;53.196;5.980;2023-04-01T09:30:17;7.35;;;4.53;;
54823;SDS011;40724;53.196;5.980;2023-04-01T09:32:49;6.97;;;4.00;;
54823;SDS011;40724;53.196;5.980;2023-04-01T09:35:24;4.80;;;3.03;;
54823;SDS011;40724;53.196;5.980;2023-04-01T09:43:16;7.97;;;3.53;;
54823;SDS011;40724;53.196;5.980;2023-04-01T10:16:57;7.78;;;5.47;;
54823;SDS011;40724;53.196;5.980;2023-04-01T10:22:14;6.75;;;4.63;;
54823;SDS011;40724;53.196;5.980;2023-04-01T10:29:39;6.80;;;3.88;;
54823;SDS011;40724;53.196;5.980;2023-04-01T11:36:20;5.30;;;2.67;;
54823;SDS011;40724;53.196;5.980;2023-04-01T11:39:03;4.57;;;3.90;;
54823;SDS011;40724;53.196;5.980;2023-04-01T11:41:49;6.47;;;2.60;;
54823;SDS011;40724;53.196;5.980;2023-04-01T11:44:19;5.18;;;2.90;;
54823;SDS011;40724;53.196;5.980;2023-04-01T11:51:52;4.60;;;2.65;;
54823;SDS011;40724;53.196;5.980;2023-04-01T12:02:48;4.57;;;3.20;;
54823;SDS011;40724;53.196;5.980;2023-04-01T12:08:05;3.80;;;2.83;;
54823;SDS011;40724;53.196;5.980;2023-04-01T12:10:38;4.88;;;2.95;;
54823;SDS011;40724;53.196;5.980;2023-04-01T12:36:13;6.07;;;2.83;;
54823;SDS011;40724;53.196;5.980;2023-04-01T12:41:41;4.93;;;3.70;;
54823;SDS011;40724;53.196;5.980;2023-04-01T12:52:11;4.78;;;2.53;;
54823;SDS011;40724;53.196;5.980;2023-04-01T13:05:23;4.78;;;2.05;;
54823;SDS011;40724;53.196;5.980;2023-04-01T13:08:17;6.50;;;2.47;;
54823;SDS011;40724;53.196;5.980;2023-04-01T13:14:09;4.50;;;2.00;;
54823;SDS011;40724;53.196;5.980;2023-04-01T13:16:26;5.07;;;2.67;;
54823;SDS011;40724;53.196;5.980;2023-04-01T13:34:27;2.97;;;2.15;;
54823;SDS011;40724;53.196;5.980;2023-04-01T13:37:05;2.63;;;2.05;;
54823;SDS011;40724;53.196;5.980;2023-04-01T13:42:20;4.68;;;2.42;;
54823;SDS011;40724;53.196;5.980;2023-04-01T13:47:40;3.47;;;2.20;;
54823;SDS011;40724;53.196;5.980;2023-04-01T13:52:52;4.07;;;2.00;;
54823;SDS011;40724;53.196;5.980;2023-04-01T13:55:24;3.97;;;2.20;;
54823;SDS011;40724;53.196;5.980;2023-04-01T14:06:13;4.55;;;2.55;;
54823;SDS011;40724;53.196;5.980;2023-04-01T14:13:44;3.85;;;2.17;;
54823;SDS011;40724;53.196;5.980;2023-04-01T14:26:26;5.18;;;1.90;;
54823;SDS011;40724;53.196;5.980;2023-04-01T14:29:02;4.85;;;2.55;;
54823;SDS011;40724;53.196;5.980;2023-04-01T14:32:05;4.38;;;1.70;;
54823;SDS011;40724;53.196;5.980;2023-04-01T14:43:43;2.30;;;1.35;;
54823;SDS011;40724;53.196;5.980;2023-04-01T14:46:23;3.97;;;1.92;;
54823;SDS011;40724;53.196;5.980;2023-04-01T14:49:30;3.03;;;1.17;;
54823;SDS011;40724;53.196;5.980;2023-04-01T14:55:01;2.65;;;1.60;;
54823;SDS011;40724;53.196;5.980;2023-04-01T14:57:44;2.85;;;1.73;;
54823;SDS011;40724;53.196;5.980;2023-04-01T15:09:05;3.38;;;2.40;;
54823;SDS011;40724;53.196;5.980;2023-04-01T15:14:53;4.00;;;2.10;;
54823;SDS011;40724;53.196;5.980;2023-04-01T15:28:57;3.42;;;2.20;;
54823;SDS011;40724;53.196;5.980;2023-04-01T15:34:08;4.15;;;2.78;;
54823;SDS011;40724;53.196;5.980;2023-04-01T15:36:51;5.97;;;2.97;;
54823;SDS011;40724;53.196;5.980;2023-04-01T15:45:36;6.95;;;3.30;;
54823;SDS011;40724;53.196;5.980;2023-04-01T15:47:46;6.32;;;3.78;;
54823;SDS011;40724;53.196;5.980;2023-04-01T16:00:45;8.02;;;4.63;;
54823;SDS011;40724;53.196;5.980;2023-04-01T16:03:17;7.07;;;3.95;;
54823;SDS011;40724;53.196;5.980;2023-04-01T16:08:37;7.47;;;4.15;;
54823;SDS011;40724;53.196;5.980;2023-04-01T16:21:36;11.38;;;5.10;;
54823;SDS011;40724;53.196;5.980;2023-04-01T16:24:10;7.75;;;4.85;;
54823;SDS011;40724;53.196;5.980;2023-04-01T16:26:44;7.78;;;5.40;;
54823;SDS011;40724;53.196;5.980;2023-04-01T16:37:11;11.23;;;5.03;;
54823;SDS011;40724;53.196;5.980;2023-04-01T16:39:43;9.98;;;5.82;;
54823;SDS011;40724;53.196;5.980;2023-04-01T16:42:24;8.48;;;4.45;;
54823;SDS011;40724;53.196;5.980;2023-04-01T16:47:54;9.13;;;5.53;;
54823;SDS011;40724;53.196;5.980;2023-04-01T16:50:25;8.05;;;5.22;;
54823;SDS011;40724;53.196;5.980;2023-04-01T16:56:02;8.55;;;4.55;;
54823;SDS011;40724;53.196;5.980;2023-04-01T17:01:01;8.70;;;5.53;;
54823;SDS011;40724;53.196;5.980;2023-04-01T17:06:17;6.30;;;4.50;;
54823;SDS011;40724;53.196;5.980;2023-04-01T17:13:52;9.23;;;4.68;;
54823;SDS011;40724;53.196;5.980;2023-04-01T17:26:46;9.75;;;5.50;;
54823;SDS011;40724;53.196;5.980;2023-04-01T17:29:23;8.90;;;4.28;;
54823;SDS011;40724;53.196;5.980;2023-04-01T17:35:39;6.90;;;5.30;;
54823;SDS011;40724;53.196;5.980;2023-04-01T17:44:57;8.32;;;5.22;;
54823;SDS011;40724;53.196;5.980;2023-04-01T17:49:55;8.93;;;4.38;;
54823;SDS011;40724;53.196;5.980;2023-04-01T18:05:19;9.90;;;5.45;;
54823;SDS011;40724;53.196;5.980;2023-04-01T18:08:00;8.52;;;5.70;;
54823;SDS011;40724;53.196;5.980;2023-04-01T18:18:15;9.80;;;5.88;;
54823;SDS011;40724;53.196;5.980;2023-04-01T18:26:05;6.85;;;4.95;;
54823;SDS011;40724;53.196;5.980;2023-04-01T18:28:38;7.75;;;5.20;;
54823;SDS011;40724;53.196;5.980;2023-04-01T18:31:26;9.98;;;5.47;;
54823;SDS011;40724;53.196;5.980;2023-04-01T18:38:53;8.07;;;5.05;;
54823;SDS011;40724;53.196;5.980;2023-04-01T18:41:32;8.18;;;4.97;;
54823;SDS011;40724;53.196;5.980;2023-04-01T18:46:38;9.45;;;4.85;;
54823;SDS011;40724;53.196;5.980;2023-04-01T18:51:35;11.10;;;6.82;;
54823;SDS011;40724;53.196;5.980;2023-04-01T18:54:18;18.88;;;7.60;;
54823;SDS011;40724;53.196;5.980;2023-04-01T18:56:48;10.68;;;6.07;;
54823;SDS011;40724;53.196;5.980;2023-04-01T18:59:20;11.43;;;5.35;;
54823;SDS011;40724;53.196;5.980;2023-04-01T19:04:32;12.35;;;6.97;;
54823;SDS011;40724;53.196;5.980;2023-04-01T19:07:00;14.07;;;6.68;;
54823;SDS011;40724;53.196;5.980;2023-04-01T19:09:31;10.85;;;6.35;;
54823;SDS011;40724;53.196;5.980;2023-04-01T19:20:17;11.20;;;6.35;;
54823;SDS011;40724;53.196;5.980;2023-04-01T19:25:29;10.00;;;5.68;;
54823;SDS011;40724;53.196;5.980;2023-04-01T19:28:01;9.95;;;6.35;;
54823;SDS011;40724;53.196;5.980;2023-04-01T19:35:59;10.50;;;6.03;;
54823;SDS011;40724;53.196;5.980;2023-04-01T19:38:31;11.30;;;6.20;;
54823;SDS011;40724;53.196;5.980;2023-04-01T19:43:44;11.10;;;5.57;;
54823;SDS011;40724;53.196;5.980;2023-04-01T19:48:48;10.32;;;6.15;;
54823;SDS011;40724;53.196;5.980;2023-04-01T19:56:21;13.40;;;6.05;;
54823;SDS011;40724;53.196;5.980;2023-04-01T20:01:20;11.48;;;6.20;;
54823;SDS011;40724;53.196;5.980;2023-04-01T20:03:50;11.32;;;6.03;;
54823;SDS011;40724;53.196;5.980;2023-04-01T20:06:19;9.75;;;6.18;;
54823;SDS011;40724;53.196;5.980;2023-04-01T20:11:42;14.35;;;6.63;;
54823;SDS011;40724;53.196;5.980;2023-04-01T20:14:13;12.60;;;6.55;;
54823;SDS011;40724;53.196;5.980;2023-04-01T20:19:27;12.18;;;7.82;;
54823;SDS011;40724;53.196;5.980;2023-04-01T20:21:56;11.40;;;7.15;;
54823;SDS011;40724;53.196;5.980;2023-04-01T20:24:25;20.80;;;7.90;;
54823;SDS011;40724;53.196;5.980;2023-04-01T20:27:03;13.55;;;6.72;;
54823;SDS011;40724;53.196;5.980;2023-04-01T20:29:37;10.98;;;7.25;;
54823;SDS011;40724;53.196;5.980;2023-04-01T20:37:49;14.38;;;6.78;;
54823;SDS011;40724;53.196;5.980;2023-04-01T20:40:26;13.15;;;6.75;;
54823;SDS011;40724;53.196;5.980;2023-04-01T20:43:04;8.68;;;4.97;;
54823;SDS011;40724;53.196;5.980;2023-04-01T20:45:35;10.75;;;5.75;;
54823;SDS011;40724;53.196;5.980;2023-04-01T20:50:52;11.60;;;5.85;;
54823;SDS011;40724;53.196;5.980;2023-04-01T20:53:28;14.43;;;7.15;;
54823;SDS011;40724;53.196;5.980;2023-04-01T21:08:35;10.55;;;6.40;;
54823;SDS011;40724;53.196;5.980;2023-04-01T21:11:18;12.43;;;6.18;;
54823;SDS011;40724;53.196;5.980;2023-04-01T21:18:46;11.60;;;5.45;;
54823;SDS011;40724;53.196;5.980;2023-04-01T21:29:38;9.68;;;5.05;;
54823;SDS011;40724;53.196;5.980;2023-04-01T21:57:51;8.57;;;5.10;;
54823;SDS011;40724;53.196;5.980;2023-04-01T22:00:30;8.10;;;4.97;;
54823;SDS011;40724;53.196;5.980;2023-04-01T22:05:51;8.98;;;5.03;;
54823;SDS011;40724;53.196;5.980;2023-04-01T22:16:19;10.68;;;4.30;;
54823;SDS011;40724;53.196;5.980;2023-04-01T22:21:33;17.67;;;4.68;;
54823;SDS011;40724;53.196;5.980;2023-04-01T22:24:16;12.68;;;4.80;;
54823;SDS011;40724;53.196;5.980;2023-04-01T22:26:58;10.32;;;3.70;;
54823;SDS011;40724;53.196;5.980;2023-04-01T22:29:40;6.60;;;3.78;;
54823;SDS011;40724;53.196;5.980;2023-04-01T22:32:16;7.78;;;4.18;;
54823;SDS011;40724;53.196;5.980;2023-04-01T22:34:47;6.25;;;3.97;;
54823;SDS011;40724;53.196;5.980;2023-04-01T22:37:23;10.77;;;4.28;;
54823;SDS011;40724;53.196;5.980;2023-04-01T22:50:16;6.10;;;4.22;;
54823;SDS011;40724;53.196;5.980;2023-04-01T22:52:46;7.28;;;3.83;;
54823;SDS011;40724;53.196;5.980;2023-04-01T22:55:15;12.75;;;5.40;;
54823;SDS011;40724;53.196;5.980;2023-04-01T22:57:46;12.57;;;5.95;;
54823;SDS011;40724;53.196;5.980;2023-04-01T23:00:27;10.15;;;4.57;;
54823;SDS011;40724;53.196;5.980;2023-04-01T23:03:13;7.97;;;4.38;;
54823;SDS011;40724;53.196;5.980;2023-04-01T23:05:43;7.88;;;4.50;;
54823;SDS011;40724;53.196;5.980;2023-04-01T23:11:02;8.35;;;4.18;;
54823;SDS011;40724;53.196;5.980;2023-04-01T23:13:41;8.88;;;4.13;;
54823;SDS011;40724;53.196;5.980;2023-04-01T23:16:10;10.18;;;4.97;;
54823;SDS011;40724;53.196;5.980;2023-04-01T23:18:42;11.75;;;3.85;;
54823;SDS011;40724;53.196;5.980;2023-04-01T23:21:14;7.05;;;3.88;;
54823;SDS011;40724;53.196;5.980;2023-04-01T23:26:09;7.20;;;3.63;;
54823;SDS011;40724;53.196;5.980;2023-04-01T23:29:09;10.77;;;3.90;;
54823;SDS011;40724;53.196;5.980;2023-04-01T23:31:29;7.00;;;3.53;;
54823;SDS011;40724;53.196;5.980;2023-04-01T23:33:57;10.60;;;4.10;;
54823;SDS011;40724;53.196;5.980;2023-04-01T23:36:24;8.05;;;5.07;;
54823;SDS011;40724;53.196;5.980;2023-04-01T23:38:51;7.95;;;3.47;;
54823;SDS011;40724;53.196;5.980;2023-04-01T23:41:22;7.03;;;4.00;;
54823;SDS011;40724;53.196;5.980;2023-04-01T23:43:57;5.85;;;3.70;;
54823;SDS011;40724;53.196;5.980;2023-04-01T23:46:24;11.32;;;4.25;;
54823;SDS011;40724;53.196;5.980;2023-04-01T23:48:50;7.05;;;3.25;;
54823;SDS011;40724;53.196;5.980;2023-04-01T23:51:28;13.43;;;4.10;;
54823;SDS011;40724;53.196;5.980;2023-04-01T23:56:42;5.93;;;3.08;;
